sensor_id;sensor_type;location;lat;lon;timestamp;P1;durP1;ratioP1;P2;durP2;ratioP2
51957;SDS011;41120;51.820;20.804;2023-05-20T00:01:08;53.27;;;31.70;;
51957;SDS011;41120;51.820;20.804;2023-05-20T00:03:35;58.97;;;34.83;;
51957;SDS011;41120;51.820;20.804;2023-05-20T00:06:00;51.93;;;34.57;;
51957;SDS011;41120;51.820;20.804;2023-05-20T00:08:26;50.83;;;31.07;;
51957;SDS011;41120;51.820;20.804;2023-05-20T00:10:52;43.43;;;29.30;;
51957;SDS011;41120;51.820;20.804;2023-05-20T00:13:19;52.40;;;30.73;;
51957;SDS011;41120;51.820;20.804;2023-05-20T00:15:45;50.10;;;32.20;;
51957;SDS011;41120;51.820;20.804;2023-05-20T00:18:12;55.20;;;33.20;;
51957;SDS011;41120;51.820;20.804;2023-05-20T00:20:38;55.30;;;30.73;;
51957;SDS011;41120;51.820;20.804;2023-05-20T00:23:04;52.80;;;32.63;;
51957;SDS011;41120;51.820;20.804;2023-05-20T00:25:30;57.83;;;36.03;;
51957;SDS011;41120;51.820;20.804;2023-05-20T00:27:57;65.63;;;41.10;;
51957;SDS011;41120;51.820;20.804;2023-05-20T00:30:23;67.60;;;41.77;;
51957;SDS011;41120;51.820;20.804;2023-05-20T00:32:49;65.37;;;39.67;;
51957;SDS011;41120;51.820;20.804;2023-05-20T00:35:15;62.20;;;38.33;;
51957;SDS011;41120;51.820;20.804;2023-05-20T00:37:41;59.40;;;36.60;;
51957;SDS011;41120;51.820;20.804;2023-05-20T00:40:07;50.40;;;31.13;;
51957;SDS011;41120;51.820;20.804;2023-05-20T00:42:34;50.17;;;29.13;;
51957;SDS011;41120;51.820;20.804;2023-05-20T00:45:00;49.47;;;29.83;;
51957;SDS011;41120;51.820;20.804;2023-05-20T00:47:27;51.93;;;31.57;;
51957;SDS011;41120;51.820;20.804;2023-05-20T00:49:54;48.17;;;30.50;;
51957;SDS011;41120;51.820;20.804;2023-05-20T00:52:20;49.90;;;30.30;;
51957;SDS011;41120;51.820;20.804;2023-05-20T00:54:46;53.00;;;30.27;;
51957;SDS011;41120;51.820;20.804;2023-05-20T00:57:14;53.37;;;30.70;;
51957;SDS011;41120;51.820;20.804;2023-05-20T00:59:42;55.07;;;30.97;;
51957;SDS011;41120;51.820;20.804;2023-05-20T01:02:09;51.80;;;32.00;;
51957;SDS011;41120;51.820;20.804;2023-05-20T01:04:35;53.70;;;33.17;;
51957;SDS011;41120;51.820;20.804;2023-05-20T01:07:02;57.27;;;34.10;;
51957;SDS011;41120;51.820;20.804;2023-05-20T01:09:29;51.50;;;32.60;;
51957;SDS011;41120;51.820;20.804;2023-05-20T01:14:35;52.00;;;31.63;;
51957;SDS011;41120;51.820;20.804;2023-05-20T01:17:02;54.83;;;31.13;;
51957;SDS011;41120;51.820;20.804;2023-05-20T01:22:02;42.73;;;29.33;;
51957;SDS011;41120;51.820;20.804;2023-05-20T01:24:30;45.30;;;28.93;;
51957;SDS011;41120;51.820;20.804;2023-05-20T01:26:56;51.93;;;31.93;;
51957;SDS011;41120;51.820;20.804;2023-05-20T01:29:23;48.53;;;29.67;;
51957;SDS011;41120;51.820;20.804;2023-05-20T01:31:49;48.90;;;30.50;;
51957;SDS011;41120;51.820;20.804;2023-05-20T01:34:16;49.93;;;30.77;;
51957;SDS011;41120;51.820;20.804;2023-05-20T01:36:42;48.00;;;31.60;;
51957;SDS011;41120;51.820;20.804;2023-05-20T01:39:09;51.97;;;30.80;;
51957;SDS011;41120;51.820;20.804;2023-05-20T01:41:36;50.00;;;32.47;;
51957;SDS011;41120;51.820;20.804;2023-05-20T01:44:02;52.77;;;32.17;;
51957;SDS011;41120;51.820;20.804;2023-05-20T01:46:31;49.33;;;30.93;;
51957;SDS011;41120;51.820;20.804;2023-05-20T01:48:57;54.27;;;31.93;;
51957;SDS011;41120;51.820;20.804;2023-05-20T01:51:23;50.33;;;31.47;;
51957;SDS011;41120;51.820;20.804;2023-05-20T01:53:48;54.40;;;31.87;;
51957;SDS011;41120;51.820;20.804;2023-05-20T01:56:15;50.73;;;30.97;;
51957;SDS011;41120;51.820;20.804;2023-05-20T01:58:40;48.33;;;30.30;;
51957;SDS011;41120;51.820;20.804;2023-05-20T02:01:06;52.60;;;31.30;;
51957;SDS011;41120;51.820;20.804;2023-05-20T02:03:33;54.47;;;31.67;;
51957;SDS011;41120;51.820;20.804;2023-05-20T02:06:00;49.47;;;30.93;;
51957;SDS011;41120;51.820;20.804;2023-05-20T02:08:26;52.93;;;30.77;;
51957;SDS011;41120;51.820;20.804;2023-05-20T02:10:52;50.93;;;30.07;;
51957;SDS011;41120;51.820;20.804;2023-05-20T02:13:19;48.80;;;30.63;;
51957;SDS011;41120;51.820;20.804;2023-05-20T02:15:45;54.47;;;32.13;;
51957;SDS011;41120;51.820;20.804;2023-05-20T02:18:11;50.77;;;32.17;;
51957;SDS011;41120;51.820;20.804;2023-05-20T02:20:38;47.40;;;31.30;;
51957;SDS011;41120;51.820;20.804;2023-05-20T02:23:05;53.17;;;31.60;;
51957;SDS011;41120;51.820;20.804;2023-05-20T02:25:32;47.97;;;31.93;;
51957;SDS011;41120;51.820;20.804;2023-05-20T02:27:57;50.90;;;31.53;;
51957;SDS011;41120;51.820;20.804;2023-05-20T02:30:23;48.83;;;31.17;;
51957;SDS011;41120;51.820;20.804;2023-05-20T02:32:49;59.00;;;32.37;;
51957;SDS011;41120;51.820;20.804;2023-05-20T02:35:15;51.67;;;31.23;;
51957;SDS011;41120;51.820;20.804;2023-05-20T02:37:41;48.43;;;30.03;;
51957;SDS011;41120;51.820;20.804;2023-05-20T02:40:09;50.30;;;30.87;;
51957;SDS011;41120;51.820;20.804;2023-05-20T02:42:35;50.30;;;30.47;;
51957;SDS011;41120;51.820;20.804;2023-05-20T02:45:01;54.53;;;31.03;;
51957;SDS011;41120;51.820;20.804;2023-05-20T02:47:27;50.37;;;29.80;;
51957;SDS011;41120;51.820;20.804;2023-05-20T02:49:53;46.80;;;29.07;;
51957;SDS011;41120;51.820;20.804;2023-05-20T02:52:19;43.43;;;28.33;;
51957;SDS011;41120;51.820;20.804;2023-05-20T02:54:45;42.37;;;28.67;;
51957;SDS011;41120;51.820;20.804;2023-05-20T02:57:11;45.30;;;28.50;;
51957;SDS011;41120;51.820;20.804;2023-05-20T02:59:37;47.97;;;29.23;;
51957;SDS011;41120;51.820;20.804;2023-05-20T03:02:02;48.37;;;28.70;;
51957;SDS011;41120;51.820;20.804;2023-05-20T03:04:29;45.70;;;27.83;;
51957;SDS011;41120;51.820;20.804;2023-05-20T03:06:55;43.93;;;28.27;;
51957;SDS011;41120;51.820;20.804;2023-05-20T03:09:23;43.33;;;27.43;;
51957;SDS011;41120;51.820;20.804;2023-05-20T03:11:49;46.17;;;26.93;;
51957;SDS011;41120;51.820;20.804;2023-05-20T03:14:15;40.77;;;25.87;;
51957;SDS011;41120;51.820;20.804;2023-05-20T03:16:41;41.07;;;24.53;;
51957;SDS011;41120;51.820;20.804;2023-05-20T03:19:08;33.33;;;22.00;;
51957;SDS011;41120;51.820;20.804;2023-05-20T03:21:33;31.73;;;20.90;;
51957;SDS011;41120;51.820;20.804;2023-05-20T03:23:59;28.60;;;20.27;;
51957;SDS011;41120;51.820;20.804;2023-05-20T03:26:25;29.73;;;21.07;;
51957;SDS011;41120;51.820;20.804;2023-05-20T03:28:51;31.83;;;20.07;;
51957;SDS011;41120;51.820;20.804;2023-05-20T03:31:17;25.90;;;18.43;;
51957;SDS011;41120;51.820;20.804;2023-05-20T03:33:44;27.70;;;18.47;;
51957;SDS011;41120;51.820;20.804;2023-05-20T03:36:10;24.83;;;17.73;;
51957;SDS011;41120;51.820;20.804;2023-05-20T03:38:36;25.77;;;18.27;;
51957;SDS011;41120;51.820;20.804;2023-05-20T03:41:02;29.83;;;17.87;;
51957;SDS011;41120;51.820;20.804;2023-05-20T03:43:28;28.23;;;18.83;;
51957;SDS011;41120;51.820;20.804;2023-05-20T03:45:54;27.13;;;17.60;;
51957;SDS011;41120;51.820;20.804;2023-05-20T03:48:23;28.83;;;16.70;;
51957;SDS011;41120;51.820;20.804;2023-05-20T03:50:48;25.33;;;17.10;;
51957;SDS011;41120;51.820;20.804;2023-05-20T03:53:15;24.87;;;17.83;;
51957;SDS011;41120;51.820;20.804;2023-05-20T03:55:41;25.50;;;17.47;;
51957;SDS011;41120;51.820;20.804;2023-05-20T03:58:08;26.57;;;17.30;;
51957;SDS011;41120;51.820;20.804;2023-05-20T04:00:33;26.07;;;16.70;;
51957;SDS011;41120;51.820;20.804;2023-05-20T04:03:00;25.27;;;15.80;;
51957;SDS011;41120;51.820;20.804;2023-05-20T04:05:26;23.13;;;16.03;;
51957;SDS011;41120;51.820;20.804;2023-05-20T04:07:53;23.43;;;15.53;;
51957;SDS011;41120;51.820;20.804;2023-05-20T04:10:19;24.17;;;15.23;;
51957;SDS011;41120;51.820;20.804;2023-05-20T04:12:46;23.07;;;16.13;;
51957;SDS011;41120;51.820;20.804;2023-05-20T04:15:11;24.47;;;15.97;;
51957;SDS011;41120;51.820;20.804;2023-05-20T04:17:38;25.50;;;15.93;;
51957;SDS011;41120;51.820;20.804;2023-05-20T04:20:05;24.43;;;16.83;;
51957;SDS011;41120;51.820;20.804;2023-05-20T04:22:32;24.53;;;15.93;;
51957;SDS011;41120;51.820;20.804;2023-05-20T04:24:59;22.00;;;15.43;;
51957;SDS011;41120;51.820;20.804;2023-05-20T04:27:25;23.53;;;14.70;;
51957;SDS011;41120;51.820;20.804;2023-05-20T04:29:51;20.53;;;13.70;;
51957;SDS011;41120;51.820;20.804;2023-05-20T04:32:18;26.47;;;13.73;;
51957;SDS011;41120;51.820;20.804;2023-05-20T04:34:44;20.37;;;13.27;;
51957;SDS011;41120;51.820;20.804;2023-05-20T04:37:11;22.47;;;13.13;;
51957;SDS011;41120;51.820;20.804;2023-05-20T04:39:37;20.90;;;12.57;;
51957;SDS011;41120;51.820;20.804;2023-05-20T04:42:04;19.23;;;12.37;;
51957;SDS011;41120;51.820;20.804;2023-05-20T04:44:29;21.10;;;13.20;;
51957;SDS011;41120;51.820;20.804;2023-05-20T04:46:56;17.13;;;12.10;;
51957;SDS011;41120;51.820;20.804;2023-05-20T04:49:25;17.43;;;11.67;;
51957;SDS011;41120;51.820;20.804;2023-05-20T04:51:51;19.90;;;12.47;;
51957;SDS011;41120;51.820;20.804;2023-05-20T04:54:20;18.17;;;11.77;;
51957;SDS011;41120;51.820;20.804;2023-05-20T04:56:46;16.57;;;9.77;;
51957;SDS011;41120;51.820;20.804;2023-05-20T05:01:51;16.53;;;9.80;;
51957;SDS011;41120;51.820;20.804;2023-05-20T05:04:20;14.83;;;9.17;;
51957;SDS011;41120;51.820;20.804;2023-05-20T05:13:14;13.23;;;8.40;;
51957;SDS011;41120;51.820;20.804;2023-05-20T05:15:40;11.67;;;8.13;;
51957;SDS011;41120;51.820;20.804;2023-05-20T05:18:06;10.37;;;7.90;;
51957;SDS011;41120;51.820;20.804;2023-05-20T05:20:33;15.13;;;7.50;;
51957;SDS011;41120;51.820;20.804;2023-05-20T05:23:06;11.93;;;7.13;;
51957;SDS011;41120;51.820;20.804;2023-05-20T05:25:31;10.27;;;7.23;;
51957;SDS011;41120;51.820;20.804;2023-05-20T05:27:59;11.00;;;6.53;;
51957;SDS011;41120;51.820;20.804;2023-05-20T05:30:24;9.73;;;5.97;;
51957;SDS011;41120;51.820;20.804;2023-05-20T05:33:03;8.67;;;6.23;;
51957;SDS011;41120;51.820;20.804;2023-05-20T05:35:32;13.70;;;6.43;;
51957;SDS011;41120;51.820;20.804;2023-05-20T05:37:59;12.87;;;5.97;;
51957;SDS011;41120;51.820;20.804;2023-05-20T05:40:27;8.33;;;5.93;;
51957;SDS011;41120;51.820;20.804;2023-05-20T05:43:00;9.33;;;6.10;;
51957;SDS011;41120;51.820;20.804;2023-05-20T05:45:40;8.77;;;5.53;;
51957;SDS011;41120;51.820;20.804;2023-05-20T05:50:45;11.07;;;6.10;;
51957;SDS011;41120;51.820;20.804;2023-05-20T05:53:13;12.40;;;6.23;;
51957;SDS011;41120;51.820;20.804;2023-05-20T05:55:40;12.63;;;6.13;;
51957;SDS011;41120;51.820;20.804;2023-05-20T05:58:16;10.63;;;5.47;;
51957;SDS011;41120;51.820;20.804;2023-05-20T06:01:01;10.03;;;6.40;;
51957;SDS011;41120;51.820;20.804;2023-05-20T06:06:08;8.97;;;5.63;;
51957;SDS011;41120;51.820;20.804;2023-05-20T06:08:40;9.30;;;5.87;;
51957;SDS011;41120;51.820;20.804;2023-05-20T06:11:08;14.90;;;5.83;;
51957;SDS011;41120;51.820;20.804;2023-05-20T06:13:36;6.37;;;5.33;;
51957;SDS011;41120;51.820;20.804;2023-05-20T06:16:02;9.50;;;5.27;;
51957;SDS011;41120;51.820;20.804;2023-05-20T06:18:28;10.13;;;5.27;;
51957;SDS011;41120;51.820;20.804;2023-05-20T06:20:55;10.50;;;5.37;;
51957;SDS011;41120;51.820;20.804;2023-05-20T06:23:22;7.67;;;5.23;;
51957;SDS011;41120;51.820;20.804;2023-05-20T06:25:48;7.93;;;5.47;;
51957;SDS011;41120;51.820;20.804;2023-05-20T06:28:15;10.70;;;5.93;;
51957;SDS011;41120;51.820;20.804;2023-05-20T06:30:41;9.50;;;5.30;;
51957;SDS011;41120;51.820;20.804;2023-05-20T06:33:07;7.67;;;4.93;;
51957;SDS011;41120;51.820;20.804;2023-05-20T06:35:35;7.13;;;4.90;;
51957;SDS011;41120;51.820;20.804;2023-05-20T06:38:01;9.48;;;5.03;;
51957;SDS011;41120;51.820;20.804;2023-05-20T06:40:27;6.72;;;4.80;;
51957;SDS011;41120;51.820;20.804;2023-05-20T06:42:53;6.70;;;4.32;;
51957;SDS011;41120;51.820;20.804;2023-05-20T06:45:20;6.65;;;4.50;;
51957;SDS011;41120;51.820;20.804;2023-05-20T06:47:47;10.05;;;4.75;;
51957;SDS011;41120;51.820;20.804;2023-05-20T06:50:14;9.05;;;4.93;;
51957;SDS011;41120;51.820;20.804;2023-05-20T06:52:40;7.93;;;4.97;;
51957;SDS011;41120;51.820;20.804;2023-05-20T06:55:06;7.28;;;4.90;;
51957;SDS011;41120;51.820;20.804;2023-05-20T06:57:32;9.88;;;4.60;;
51957;SDS011;41120;51.820;20.804;2023-05-20T06:59:58;8.57;;;5.05;;
51957;SDS011;41120;51.820;20.804;2023-05-20T07:02:24;7.43;;;4.97;;
51957;SDS011;41120;51.820;20.804;2023-05-20T07:04:50;7.35;;;4.75;;
51957;SDS011;41120;51.820;20.804;2023-05-20T07:07:18;13.57;;;4.95;;
51957;SDS011;41120;51.820;20.804;2023-05-20T07:09:43;8.13;;;4.57;;
51957;SDS011;41120;51.820;20.804;2023-05-20T07:12:09;5.82;;;4.63;;
51957;SDS011;41120;51.820;20.804;2023-05-20T07:14:35;7.53;;;5.03;;
51957;SDS011;41120;51.820;20.804;2023-05-20T07:17:02;7.70;;;5.35;;
51957;SDS011;41120;51.820;20.804;2023-05-20T07:19:28;8.63;;;5.75;;
51957;SDS011;41120;51.820;20.804;2023-05-20T07:21:55;10.40;;;6.05;;
51957;SDS011;41120;51.820;20.804;2023-05-20T07:24:21;8.05;;;5.70;;
51957;SDS011;41120;51.820;20.804;2023-05-20T07:26:47;8.13;;;5.63;;
51957;SDS011;41120;51.820;20.804;2023-05-20T07:29:13;7.35;;;5.45;;
51957;SDS011;41120;51.820;20.804;2023-05-20T07:31:39;9.05;;;5.53;;
51957;SDS011;41120;51.820;20.804;2023-05-20T07:34:04;8.27;;;5.57;;
51957;SDS011;41120;51.820;20.804;2023-05-20T07:36:31;7.95;;;6.13;;
51957;SDS011;41120;51.820;20.804;2023-05-20T07:38:56;6.95;;;5.78;;
51957;SDS011;41120;51.820;20.804;2023-05-20T07:41:23;9.57;;;6.05;;
51957;SDS011;41120;51.820;20.804;2023-05-20T07:43:48;9.13;;;6.25;;
51957;SDS011;41120;51.820;20.804;2023-05-20T07:46:14;9.20;;;5.88;;
51957;SDS011;41120;51.820;20.804;2023-05-20T07:48:40;9.95;;;6.47;;
51957;SDS011;41120;51.820;20.804;2023-05-20T07:51:07;7.35;;;6.55;;
51957;SDS011;41120;51.820;20.804;2023-05-20T07:53:33;13.20;;;6.90;;
51957;SDS011;41120;51.820;20.804;2023-05-20T07:55:59;9.52;;;6.50;;
51957;SDS011;41120;51.820;20.804;2023-05-20T07:58:27;10.80;;;7.32;;
51957;SDS011;41120;51.820;20.804;2023-05-20T08:00:53;12.32;;;7.28;;
51957;SDS011;41120;51.820;20.804;2023-05-20T08:03:19;9.35;;;6.95;;
51957;SDS011;41120;51.820;20.804;2023-05-20T08:05:47;12.50;;;8.18;;
51957;SDS011;41120;51.820;20.804;2023-05-20T08:08:12;12.93;;;7.57;;
51957;SDS011;41120;51.820;20.804;2023-05-20T08:10:38;11.20;;;7.38;;
51957;SDS011;41120;51.820;20.804;2023-05-20T08:13:04;10.38;;;7.30;;
51957;SDS011;41120;51.820;20.804;2023-05-20T08:15:31;12.63;;;7.80;;
51957;SDS011;41120;51.820;20.804;2023-05-20T08:17:56;12.93;;;8.05;;
51957;SDS011;41120;51.820;20.804;2023-05-20T08:20:23;10.02;;;7.75;;
51957;SDS011;41120;51.820;20.804;2023-05-20T08:22:51;11.27;;;7.82;;
51957;SDS011;41120;51.820;20.804;2023-05-20T08:25:18;13.23;;;8.18;;
51957;SDS011;41120;51.820;20.804;2023-05-20T08:27:44;10.75;;;8.00;;
51957;SDS011;41120;51.820;20.804;2023-05-20T08:30:12;10.93;;;8.40;;
51957;SDS011;41120;51.820;20.804;2023-05-20T08:32:38;11.80;;;8.47;;
51957;SDS011;41120;51.820;20.804;2023-05-20T08:35:06;10.40;;;8.60;;
51957;SDS011;41120;51.820;20.804;2023-05-20T08:37:31;14.50;;;8.60;;
51957;SDS011;41120;51.820;20.804;2023-05-20T08:39:58;12.73;;;9.27;;
51957;SDS011;41120;51.820;20.804;2023-05-20T08:42:24;11.93;;;8.77;;
51957;SDS011;41120;51.820;20.804;2023-05-20T08:44:51;11.37;;;8.53;;
51957;SDS011;41120;51.820;20.804;2023-05-20T08:47:21;13.60;;;9.07;;
51957;SDS011;41120;51.820;20.804;2023-05-20T08:49:50;12.67;;;9.03;;
51957;SDS011;41120;51.820;20.804;2023-05-20T08:52:17;14.27;;;8.67;;
51957;SDS011;41120;51.820;20.804;2023-05-20T08:54:48;12.90;;;9.53;;
51957;SDS011;41120;51.820;20.804;2023-05-20T08:57:14;11.33;;;9.10;;
51957;SDS011;41120;51.820;20.804;2023-05-20T08:59:41;15.13;;;9.00;;
51957;SDS011;41120;51.820;20.804;2023-05-20T09:02:08;12.90;;;9.87;;
51957;SDS011;41120;51.820;20.804;2023-05-20T09:04:36;13.50;;;9.13;;
51957;SDS011;41120;51.820;20.804;2023-05-20T09:07:02;13.47;;;8.83;;
51957;SDS011;41120;51.820;20.804;2023-05-20T09:09:29;11.80;;;9.40;;
51957;SDS011;41120;51.820;20.804;2023-05-20T09:11:56;15.60;;;9.00;;
51957;SDS011;41120;51.820;20.804;2023-05-20T09:14:25;10.37;;;7.77;;
51957;SDS011;41120;51.820;20.804;2023-05-20T09:16:53;11.13;;;7.47;;
51957;SDS011;41120;51.820;20.804;2023-05-20T09:19:27;11.17;;;8.40;;
51957;SDS011;41120;51.820;20.804;2023-05-20T09:21:53;10.90;;;7.67;;
51957;SDS011;41120;51.820;20.804;2023-05-20T09:24:25;9.00;;;7.40;;
51957;SDS011;41120;51.820;20.804;2023-05-20T09:26:51;10.63;;;7.43;;
51957;SDS011;41120;51.820;20.804;2023-05-20T09:29:40;10.03;;;7.47;;
51957;SDS011;41120;51.820;20.804;2023-05-20T09:32:11;8.60;;;7.30;;
51957;SDS011;41120;51.820;20.804;2023-05-20T09:34:39;11.02;;;7.43;;
51957;SDS011;41120;51.820;20.804;2023-05-20T09:37:08;10.73;;;7.00;;
51957;SDS011;41120;51.820;20.804;2023-05-20T09:39:38;10.17;;;7.30;;
51957;SDS011;41120;51.820;20.804;2023-05-20T09:42:08;8.93;;;6.63;;
51957;SDS011;41120;51.820;20.804;2023-05-20T09:44:37;9.50;;;6.87;;
51957;SDS011;41120;51.820;20.804;2023-05-20T09:47:03;7.30;;;6.60;;
51957;SDS011;41120;51.820;20.804;2023-05-20T09:49:31;7.63;;;6.73;;
51957;SDS011;41120;51.820;20.804;2023-05-20T09:51:58;9.03;;;7.00;;
51957;SDS011;41120;51.820;20.804;2023-05-20T09:54:25;9.23;;;6.70;;
51957;SDS011;41120;51.820;20.804;2023-05-20T09:56:52;8.80;;;6.43;;
51957;SDS011;41120;51.820;20.804;2023-05-20T09:59:18;8.90;;;6.03;;
51957;SDS011;41120;51.820;20.804;2023-05-20T10:01:46;7.27;;;5.87;;
51957;SDS011;41120;51.820;20.804;2023-05-20T10:04:13;8.30;;;6.83;;
51957;SDS011;41120;51.820;20.804;2023-05-20T10:06:45;10.00;;;5.80;;
51957;SDS011;41120;51.820;20.804;2023-05-20T10:12:05;8.40;;;5.77;;
51957;SDS011;41120;51.820;20.804;2023-05-20T10:17:24;7.53;;;5.53;;
51957;SDS011;41120;51.820;20.804;2023-05-20T10:19:57;7.50;;;5.63;;
51957;SDS011;41120;51.820;20.804;2023-05-20T10:22:28;11.67;;;6.07;;
51957;SDS011;41120;51.820;20.804;2023-05-20T10:24:58;8.13;;;5.90;;
51957;SDS011;41120;51.820;20.804;2023-05-20T10:27:24;6.97;;;5.65;;
51957;SDS011;41120;51.820;20.804;2023-05-20T10:29:51;7.43;;;5.50;;
51957;SDS011;41120;51.820;20.804;2023-05-20T10:32:28;5.87;;;5.20;;
51957;SDS011;41120;51.820;20.804;2023-05-20T10:35:03;11.43;;;6.00;;
51957;SDS011;41120;51.820;20.804;2023-05-20T10:40:07;6.30;;;5.50;;
51957;SDS011;41120;51.820;20.804;2023-05-20T10:42:32;8.17;;;5.90;;
51957;SDS011;41120;51.820;20.804;2023-05-20T10:44:59;8.60;;;5.38;;
51957;SDS011;41120;51.820;20.804;2023-05-20T11:03:45;8.57;;;5.15;;
51957;SDS011;41120;51.820;20.804;2023-05-20T11:09:15;6.80;;;5.77;;
51957;SDS011;41120;51.820;20.804;2023-05-20T11:17:10;8.07;;;6.17;;
51957;SDS011;41120;51.820;20.804;2023-05-20T11:19:48;8.83;;;5.50;;
51957;SDS011;41120;51.820;20.804;2023-05-20T11:22:27;7.43;;;5.95;;
51957;SDS011;41120;51.820;20.804;2023-05-20T11:27:48;7.67;;;5.77;;
51957;SDS011;41120;51.820;20.804;2023-05-20T11:30:26;8.60;;;6.50;;
51957;SDS011;41120;51.820;20.804;2023-05-20T11:32:57;11.77;;;6.53;;
51957;SDS011;41120;51.820;20.804;2023-05-20T11:35:36;8.27;;;6.20;;
51957;SDS011;41120;51.820;20.804;2023-05-20T11:38:15;9.43;;;6.72;;
51957;SDS011;41120;51.820;20.804;2023-05-20T11:40:52;8.52;;;6.25;;
51957;SDS011;41120;51.820;20.804;2023-05-20T11:46:21;9.00;;;6.33;;
51957;SDS011;41120;51.820;20.804;2023-05-20T11:54:20;8.95;;;6.72;;
51957;SDS011;41120;51.820;20.804;2023-05-20T11:56:55;11.95;;;7.10;;
51957;SDS011;41120;51.820;20.804;2023-05-20T12:04:44;7.45;;;6.57;;
51957;SDS011;41120;51.820;20.804;2023-05-20T12:07:23;7.28;;;6.10;;
51957;SDS011;41120;51.820;20.804;2023-05-20T12:10:02;9.65;;;6.38;;
51957;SDS011;41120;51.820;20.804;2023-05-20T12:12:45;7.38;;;6.43;;
51957;SDS011;41120;51.820;20.804;2023-05-20T12:18:04;8.60;;;6.38;;
51957;SDS011;41120;51.820;20.804;2023-05-20T12:20:38;8.88;;;6.22;;
51957;SDS011;41120;51.820;20.804;2023-05-20T12:26:02;7.65;;;6.28;;
51957;SDS011;41120;51.820;20.804;2023-05-20T12:28:38;8.25;;;7.20;;
51957;SDS011;41120;51.820;20.804;2023-05-20T12:31:05;13.33;;;7.10;;
51957;SDS011;41120;51.820;20.804;2023-05-20T12:33:31;10.13;;;7.17;;
51957;SDS011;41120;51.820;20.804;2023-05-20T12:35:57;9.33;;;7.30;;
51957;SDS011;41120;51.820;20.804;2023-05-20T12:41:13;9.40;;;7.30;;
51957;SDS011;41120;51.820;20.804;2023-05-20T12:43:40;12.17;;;8.07;;
51957;SDS011;41120;51.820;20.804;2023-05-20T12:48:49;9.50;;;7.27;;
51957;SDS011;41120;51.820;20.804;2023-05-20T12:51:29;8.67;;;6.77;;
51957;SDS011;41120;51.820;20.804;2023-05-20T12:53:57;8.03;;;7.13;;
51957;SDS011;41120;51.820;20.804;2023-05-20T12:56:25;9.17;;;7.03;;
51957;SDS011;41120;51.820;20.804;2023-05-20T12:58:55;8.23;;;6.60;;
51957;SDS011;41120;51.820;20.804;2023-05-20T13:04:08;9.57;;;7.00;;
51957;SDS011;41120;51.820;20.804;2023-05-20T13:09:10;9.37;;;6.77;;
51957;SDS011;41120;51.820;20.804;2023-05-20T13:14:36;11.67;;;7.20;;
51957;SDS011;41120;51.820;20.804;2023-05-20T13:17:11;10.57;;;7.50;;
51957;SDS011;41120;51.820;20.804;2023-05-20T13:22:19;10.17;;;6.40;;
51957;SDS011;41120;51.820;20.804;2023-05-20T13:24:48;8.77;;;7.07;;
51957;SDS011;41120;51.820;20.804;2023-05-20T13:27:14;8.00;;;7.20;;
51957;SDS011;41120;51.820;20.804;2023-05-20T13:29:41;9.80;;;8.00;;
51957;SDS011;41120;51.820;20.804;2023-05-20T13:32:08;8.70;;;7.47;;
51957;SDS011;41120;51.820;20.804;2023-05-20T13:34:34;9.80;;;7.27;;
51957;SDS011;41120;51.820;20.804;2023-05-20T13:37:01;7.70;;;6.90;;
51957;SDS011;41120;51.820;20.804;2023-05-20T13:39:26;8.05;;;7.00;;
51957;SDS011;41120;51.820;20.804;2023-05-20T13:41:52;7.43;;;5.95;;
51957;SDS011;41120;51.820;20.804;2023-05-20T13:44:22;9.47;;;7.00;;
51957;SDS011;41120;51.820;20.804;2023-05-20T13:46:49;9.32;;;7.45;;
51957;SDS011;41120;51.820;20.804;2023-05-20T13:49:16;8.75;;;7.10;;
51957;SDS011;41120;51.820;20.804;2023-05-20T13:51:45;8.37;;;6.90;;
51957;SDS011;41120;51.820;20.804;2023-05-20T13:54:17;7.85;;;6.93;;
51957;SDS011;41120;51.820;20.804;2023-05-20T13:59:14;12.20;;;7.72;;
51957;SDS011;41120;51.820;20.804;2023-05-20T14:01:41;12.95;;;7.55;;
51957;SDS011;41120;51.820;20.804;2023-05-20T14:04:10;9.27;;;6.93;;
51957;SDS011;41120;51.820;20.804;2023-05-20T14:06:37;8.20;;;6.93;;
51957;SDS011;41120;51.820;20.804;2023-05-20T14:09:04;7.95;;;7.07;;
51957;SDS011;41120;51.820;20.804;2023-05-20T14:11:31;9.73;;;7.20;;
51957;SDS011;41120;51.820;20.804;2023-05-20T14:13:59;7.80;;;7.00;;
51957;SDS011;41120;51.820;20.804;2023-05-20T14:16:25;12.13;;;6.67;;
51957;SDS011;41120;51.820;20.804;2023-05-20T14:18:51;10.17;;;6.90;;
51957;SDS011;41120;51.820;20.804;2023-05-20T14:21:18;8.90;;;7.20;;
51957;SDS011;41120;51.820;20.804;2023-05-20T14:23:45;8.70;;;6.70;;
51957;SDS011;41120;51.820;20.804;2023-05-20T14:26:11;9.23;;;6.70;;
51957;SDS011;41120;51.820;20.804;2023-05-20T14:28:43;11.73;;;6.33;;
51957;SDS011;41120;51.820;20.804;2023-05-20T14:39:49;11.77;;;8.77;;
51957;SDS011;41120;51.820;20.804;2023-05-20T14:44:45;9.60;;;6.60;;
51957;SDS011;41120;51.820;20.804;2023-05-20T14:49:50;7.17;;;6.37;;
51957;SDS011;41120;51.820;20.804;2023-05-20T14:55:21;10.80;;;6.80;;
51957;SDS011;41120;51.820;20.804;2023-05-20T14:57:49;9.70;;;7.30;;
51957;SDS011;41120;51.820;20.804;2023-05-20T15:00:21;11.93;;;7.27;;
51957;SDS011;41120;51.820;20.804;2023-05-20T15:02:49;11.13;;;7.70;;
51957;SDS011;41120;51.820;20.804;2023-05-20T15:05:17;14.00;;;10.80;;
51957;SDS011;41120;51.820;20.804;2023-05-20T15:07:52;7.37;;;6.50;;
51957;SDS011;41120;51.820;20.804;2023-05-20T15:13:10;13.53;;;6.57;;
51957;SDS011;41120;51.820;20.804;2023-05-20T15:15:43;11.77;;;7.63;;
51957;SDS011;41120;51.820;20.804;2023-05-20T15:20:57;9.80;;;6.57;;
51957;SDS011;41120;51.820;20.804;2023-05-20T15:25:59;9.00;;;7.33;;
51957;SDS011;41120;51.820;20.804;2023-05-20T15:31:34;19.30;;;12.67;;
51957;SDS011;41120;51.820;20.804;2023-05-20T15:34:08;18.90;;;13.40;;
51957;SDS011;41120;51.820;20.804;2023-05-20T15:36:41;9.90;;;6.63;;
51957;SDS011;41120;51.820;20.804;2023-05-20T15:39:08;10.43;;;7.60;;
51957;SDS011;41120;51.820;20.804;2023-05-20T15:41:43;8.07;;;6.70;;
51957;SDS011;41120;51.820;20.804;2023-05-20T15:44:13;10.80;;;6.67;;
51957;SDS011;41120;51.820;20.804;2023-05-20T15:49:39;12.90;;;8.50;;
51957;SDS011;41120;51.820;20.804;2023-05-20T15:54:52;11.93;;;7.00;;
51957;SDS011;41120;51.820;20.804;2023-05-20T15:59:50;9.23;;;7.13;;
51957;SDS011;41120;51.820;20.804;2023-05-20T16:05:18;19.57;;;13.10;;
51957;SDS011;41120;51.820;20.804;2023-05-20T16:13:22;12.68;;;8.50;;
51957;SDS011;41120;51.820;20.804;2023-05-20T16:15:50;8.50;;;7.20;;
51957;SDS011;41120;51.820;20.804;2023-05-20T16:18:22;11.47;;;7.63;;
51957;SDS011;41120;51.820;20.804;2023-05-20T16:20:50;10.20;;;7.03;;
51957;SDS011;41120;51.820;20.804;2023-05-20T16:23:22;9.57;;;6.80;;
51957;SDS011;41120;51.820;20.804;2023-05-20T16:25:53;11.30;;;6.80;;
51957;SDS011;41120;51.820;20.804;2023-05-20T16:31:24;11.13;;;6.93;;
51957;SDS011;41120;51.820;20.804;2023-05-20T16:37:03;9.48;;;6.22;;
51957;SDS011;41120;51.820;20.804;2023-05-20T16:39:45;7.87;;;6.70;;
51957;SDS011;41120;51.820;20.804;2023-05-20T16:47:54;8.93;;;5.80;;
51957;SDS011;41120;51.820;20.804;2023-05-20T16:50:22;12.10;;;9.90;;
51957;SDS011;41120;51.820;20.804;2023-05-20T16:55:32;13.23;;;9.57;;
51957;SDS011;41120;51.820;20.804;2023-05-20T17:04:03;8.23;;;6.03;;